createdAt,value
2018-06-21T00:00:14.924Z,19.90
2018-06-21T00:02:43.368Z,19.70
2018-06-21T00:05:11.828Z,19.60
2018-06-21T00:07:40.358Z,19.50
2018-06-21T00:10:08.944Z,19.50
2018-06-21T00:12:37.389Z,19.40
2018-06-21T00:15:05.945Z,19.30
2018-06-21T00:17:34.384Z,19.20
2018-06-21T00:20:02.842Z,19.20
2018-06-21T00:22:31.308Z,19.10
2018-06-21T00:24:59.744Z,19.10
2018-06-21T00:27:28.196Z,19.00
2018-06-21T00:29:56.657Z,19.00
2018-06-21T00:32:25.120Z,18.90
2018-06-21T00:34:53.584Z,18.90
2018-06-21T00:37:22.025Z,18.80
2018-06-21T00:39:50.515Z,18.70
2018-06-21T00:42:18.945Z,18.80
2018-06-21T00:44:47.399Z,18.70
2018-06-21T00:47:15.836Z,18.60
2018-06-21T00:49:44.304Z,18.60
2018-06-21T00:52:12.745Z,18.50
2018-06-21T00:54:41.169Z,18.50
2018-06-21T00:57:09.637Z,18.40
2018-06-21T00:59:38.049Z,18.40
2018-06-21T01:02:06.592Z,18.30
2018-06-21T01:04:35.029Z,18.20
2018-06-21T01:07:03.515Z,18.20
2018-06-21T01:09:31.992Z,18.10
2018-06-21T01:12:00.419Z,18.00
2018-06-21T01:14:28.949Z,18.00
2018-06-21T01:16:57.472Z,18.00
2018-06-21T01:19:25.932Z,18.00
2018-06-21T01:21:54.374Z,18.00
2018-06-21T01:24:24.487Z,18.00
2018-06-21T01:26:53.005Z,18.00
2018-06-21T01:29:21.465Z,17.90
2018-06-21T01:31:49.908Z,18.00
2018-06-21T01:34:18.356Z,18.00
2018-06-21T01:36:46.833Z,18.00
2018-06-21T01:39:15.284Z,17.90
2018-06-21T01:41:43.755Z,17.90
2018-06-21T01:44:12.285Z,17.80
2018-06-21T01:46:40.807Z,17.80
2018-06-21T01:49:09.292Z,17.70
2018-06-21T01:51:37.792Z,17.70
2018-06-21T01:54:06.266Z,17.70
2018-06-21T01:56:34.828Z,17.70
2018-06-21T01:59:03.481Z,17.60
2018-06-21T02:04:00.073Z,17.60
2018-06-21T02:06:28.605Z,17.50
2018-06-21T02:08:57.094Z,17.50
2018-06-21T02:11:25.603Z,17.40
2018-06-21T02:13:54.074Z,17.30
2018-06-21T02:16:22.616Z,17.30
2018-06-21T02:18:51.112Z,17.20
2018-06-21T02:21:19.555Z,17.20
2018-06-21T02:23:48.020Z,17.30
2018-06-21T02:26:16.474Z,17.30
2018-06-21T02:28:44.959Z,17.40
2018-06-21T02:31:13.389Z,17.30
2018-06-21T02:33:41.885Z,17.40
2018-06-21T02:36:10.341Z,17.30
2018-06-21T02:38:38.781Z,17.30
2018-06-21T02:41:07.367Z,17.30
2018-06-21T02:43:35.840Z,17.30
2018-06-21T02:46:04.363Z,17.30
2018-06-21T02:48:32.828Z,17.30
2018-06-21T02:51:01.388Z,17.20
2018-06-21T02:53:30.229Z,17.20
2018-06-21T02:58:26.834Z,17.40
2018-06-21T03:00:55.345Z,17.40
2018-06-21T03:03:23.793Z,17.40
2018-06-21T03:05:52.265Z,17.40
2018-06-21T03:08:20.848Z,17.40
2018-06-21T03:10:49.830Z,17.30
2018-06-21T03:13:18.457Z,17.40
2018-06-21T03:15:47.015Z,17.30
2018-06-21T03:18:15.444Z,17.30
2018-06-21T03:20:43.896Z,17.20
2018-06-21T03:23:12.369Z,17.20
2018-06-21T03:25:40.825Z,17.20
2018-06-21T03:28:09.256Z,17.20
2018-06-21T03:30:37.720Z,17.20
2018-06-21T03:33:06.370Z,17.20
2018-06-21T03:35:34.861Z,17.10
2018-06-21T03:38:03.420Z,17.10
2018-06-21T03:40:31.880Z,17.10
2018-06-21T03:43:00.347Z,17.10
2018-06-21T03:45:28.899Z,17.10
2018-06-21T03:47:57.491Z,17.00
2018-06-21T03:50:25.953Z,17.00
2018-06-21T03:52:54.429Z,17.40
2018-06-21T03:55:24.227Z,17.40
2018-06-21T03:57:52.714Z,17.50
2018-06-21T04:00:21.189Z,17.80
2018-06-21T04:02:49.670Z,18.20
2018-06-21T04:05:18.111Z,18.20
2018-06-21T04:07:46.622Z,17.70
2018-06-21T04:10:15.077Z,17.50
2018-06-21T04:12:43.722Z,17.40
2018-06-21T04:17:40.489Z,17.50
2018-06-21T04:20:08.913Z,17.40
2018-06-21T04:22:37.404Z,17.50
2018-06-21T04:25:05.906Z,17.50
2018-06-21T04:27:34.359Z,17.40
2018-06-21T04:30:02.797Z,17.50
2018-06-21T04:32:31.249Z,17.40
2018-06-21T04:34:59.828Z,17.40
2018-06-21T04:37:28.253Z,17.50
2018-06-21T04:39:56.721Z,17.40
2018-06-21T04:42:25.211Z,17.40
2018-06-21T04:44:53.656Z,17.40
2018-06-21T04:47:22.117Z,17.50
2018-06-21T04:49:50.636Z,17.50
2018-06-21T04:52:19.068Z,17.50
2018-06-21T04:54:47.508Z,17.40
2018-06-21T04:57:15.985Z,17.30
2018-06-21T04:59:44.620Z,17.40
2018-06-21T05:02:13.081Z,17.40
2018-06-21T05:04:41.541Z,17.40
2018-06-21T05:07:10.029Z,17.20
2018-06-21T05:12:08.185Z,17.20
2018-06-21T05:14:36.685Z,17.10
2018-06-21T05:17:05.150Z,17.00
2018-06-21T05:19:33.792Z,17.10
2018-06-21T05:22:02.540Z,16.90
2018-06-21T05:24:31.784Z,16.80
2018-06-21T05:27:00.229Z,16.60
2018-06-21T05:29:28.689Z,16.50
2018-06-21T05:31:57.160Z,16.50
2018-06-21T05:34:25.637Z,16.50
2018-06-21T05:36:54.084Z,16.50
2018-06-21T05:39:22.560Z,16.40
2018-06-21T05:41:51.018Z,16.40
2018-06-21T05:44:19.546Z,16.40
2018-06-21T05:46:48.063Z,16.30
2018-06-21T05:49:16.524Z,16.40
2018-06-21T05:51:44.977Z,16.30
2018-06-21T05:56:41.614Z,16.40
2018-06-21T05:59:10.095Z,16.30
2018-06-21T06:01:38.592Z,16.30
2018-06-21T06:04:07.144Z,16.40
2018-06-21T06:06:35.634Z,16.60
2018-06-21T06:09:06.825Z,16.60
2018-06-21T06:11:35.452Z,16.60
2018-06-21T06:14:04.114Z,16.70
2018-06-21T06:16:32.601Z,16.80
2018-06-21T06:19:01.041Z,16.70
2018-06-21T06:21:29.517Z,16.80
2018-06-21T06:23:57.989Z,17.10
2018-06-21T06:26:27.902Z,17.50
2018-06-21T06:28:56.436Z,17.50
2018-06-21T06:31:25.742Z,17.40
2018-06-21T06:33:55.134Z,17.50
2018-06-21T06:36:24.079Z,17.40
2018-06-21T06:38:52.605Z,17.20
2018-06-21T06:41:21.093Z,17.10
2018-06-21T06:43:49.568Z,17.20
2018-06-21T06:46:18.038Z,17.10
2018-06-21T06:48:46.817Z,17.00
2018-06-21T06:51:15.325Z,17.10
2018-06-21T06:53:43.757Z,17.00
2018-06-21T06:56:12.209Z,16.90
2018-06-21T06:58:40.694Z,17.00
2018-06-21T07:01:09.669Z,17.00
2018-06-21T07:03:38.161Z,17.00
2018-06-21T07:06:06.709Z,17.00
2018-06-21T07:08:35.235Z,17.00
2018-06-21T07:11:03.691Z,17.10
2018-06-21T07:13:32.182Z,17.10
2018-06-21T07:16:00.986Z,17.10
2018-06-21T07:18:29.498Z,17.30
2018-06-21T07:20:58.032Z,17.60
2018-06-21T07:23:26.504Z,18.00
2018-06-21T07:25:54.964Z,18.10
2018-06-21T07:28:23.446Z,18.30
2018-06-21T07:30:51.893Z,18.30
2018-06-21T07:33:20.377Z,18.50
2018-06-21T07:35:48.833Z,18.00
2018-06-21T07:38:17.236Z,17.90
2018-06-21T07:40:45.685Z,17.80
2018-06-21T07:43:14.116Z,17.60
2018-06-21T07:45:43.961Z,17.60
2018-06-21T07:48:12.976Z,17.90
2018-06-21T07:50:41.998Z,18.10
2018-06-21T07:55:40.052Z,18.20
2018-06-21T07:58:09.105Z,17.90
2018-06-21T08:03:06.076Z,17.80
2018-06-21T08:05:34.532Z,17.70
2018-06-21T08:08:04.205Z,18.00
2018-06-21T08:10:33.864Z,18.40
2018-06-21T08:13:03.073Z,18.10
2018-06-21T08:15:32.776Z,18.40
2018-06-21T08:18:02.096Z,18.10
2018-06-21T08:20:30.556Z,18.00
2018-06-21T08:22:59.104Z,18.90
2018-06-21T08:25:27.556Z,19.30
2018-06-21T08:27:56.038Z,19.50
2018-06-21T08:30:24.472Z,19.90
2018-06-21T08:32:52.895Z,20.00
2018-06-21T08:35:21.377Z,20.40
2018-06-21T08:37:49.818Z,21.20
2018-06-21T08:40:18.569Z,20.50
2018-06-21T08:42:47.069Z,21.20
2018-06-21T08:45:15.621Z,20.20
2018-06-21T08:47:44.060Z,20.60
2018-06-21T08:50:12.703Z,20.30
2018-06-21T08:52:41.132Z,19.90
2018-06-21T08:55:09.612Z,20.00
2018-06-21T08:57:38.048Z,19.10
2018-06-21T09:02:34.884Z,19.20
2018-06-21T09:05:03.762Z,18.70
2018-06-21T09:07:32.221Z,18.60
2018-06-21T09:10:00.673Z,19.30
2018-06-21T09:12:37.080Z,20.70
2018-06-21T09:15:06.993Z,21.50
2018-06-21T09:17:35.623Z,20.70
2018-06-21T09:20:04.368Z,20.70
2018-06-21T09:22:33.064Z,20.00
2018-06-21T09:25:02.257Z,19.60
2018-06-21T09:27:31.242Z,19.60
2018-06-21T09:29:59.728Z,19.60
2018-06-21T09:32:29.636Z,20.30
2018-06-21T09:34:58.137Z,20.40
2018-06-21T09:37:31.933Z,19.70
2018-06-21T09:40:05.740Z,19.20
2018-06-21T09:42:39.436Z,20.10
2018-06-21T09:45:07.919Z,21.00
2018-06-21T09:47:41.872Z,21.20
2018-06-21T09:50:10.405Z,20.30
2018-06-21T09:52:38.920Z,18.50
2018-06-21T09:55:07.358Z,18.50
2018-06-21T09:57:35.798Z,18.70
2018-06-21T10:00:04.293Z,20.00
2018-06-21T10:02:32.792Z,20.20
2018-06-21T10:05:01.245Z,19.60
2018-06-21T10:07:29.673Z,19.60
2018-06-21T10:09:58.144Z,20.00
2018-06-21T10:12:26.653Z,20.10
2018-06-21T10:14:55.085Z,21.70
2018-06-21T10:17:23.548Z,20.50
2018-06-21T10:19:52.129Z,20.20
2018-06-21T10:22:20.593Z,21.50
2018-06-21T10:24:49.013Z,20.30
2018-06-21T10:27:17.453Z,19.10
2018-06-21T10:29:45.940Z,19.60
2018-06-21T10:32:14.433Z,20.80
2018-06-21T10:34:42.938Z,20.90
2018-06-21T10:37:11.505Z,19.40
2018-06-21T10:39:39.941Z,18.90
2018-06-21T10:42:08.400Z,19.80
2018-06-21T10:44:36.967Z,20.70
2018-06-21T10:47:05.389Z,20.40
2018-06-21T10:49:33.861Z,19.70
2018-06-21T10:52:02.320Z,19.80
2018-06-21T10:54:30.886Z,19.50
2018-06-21T10:56:59.346Z,19.60
2018-06-21T10:59:27.809Z,20.70
2018-06-21T11:01:56.884Z,20.80
2018-06-21T11:04:25.324Z,21.20
2018-06-21T11:06:53.773Z,20.30
2018-06-21T11:09:22.224Z,20.70
2018-06-21T11:11:50.693Z,20.30
2018-06-21T11:14:19.140Z,20.10
2018-06-21T11:16:47.623Z,20.60
2018-06-21T11:19:16.218Z,21.50
2018-06-21T11:21:44.626Z,21.60
2018-06-21T11:24:13.249Z,23.10
2018-06-21T11:26:41.901Z,22.90
2018-06-21T11:29:10.373Z,23.20
2018-06-21T11:31:38.972Z,22.30
2018-06-21T11:34:07.407Z,22.10
2018-06-21T11:36:35.960Z,21.50
2018-06-21T11:39:06.632Z,21.40
2018-06-21T11:41:35.217Z,20.60
2018-06-21T11:44:03.664Z,20.70
2018-06-21T11:46:32.212Z,21.30
2018-06-21T11:49:00.640Z,21.30
2018-06-21T11:51:29.165Z,20.20
2018-06-21T11:53:57.632Z,20.60
2018-06-21T11:56:26.236Z,22.40
2018-06-21T11:58:54.660Z,22.90
2018-06-21T12:01:23.296Z,21.50
2018-06-21T12:03:51.819Z,21.60
2018-06-21T12:06:20.298Z,20.30
2018-06-21T12:08:49.132Z,20.30
2018-06-21T12:11:17.647Z,20.30
2018-06-21T12:13:46.132Z,20.20
2018-06-21T12:16:14.961Z,21.40
2018-06-21T12:18:43.425Z,22.40
2018-06-21T12:21:11.857Z,21.90
2018-06-21T12:23:40.307Z,21.60
2018-06-21T12:26:08.799Z,21.90
2018-06-21T12:28:37.236Z,20.50
2018-06-21T12:31:05.678Z,20.30
2018-06-21T12:33:34.539Z,20.90
2018-06-21T12:36:03.076Z,22.20
2018-06-21T12:38:31.521Z,21.20
2018-06-21T12:40:59.964Z,21.00
2018-06-21T12:43:28.453Z,21.20
2018-06-21T12:45:56.924Z,22.10
2018-06-21T12:48:25.475Z,21.40
2018-06-21T12:50:53.957Z,22.00
2018-06-21T12:53:22.429Z,22.30
2018-06-21T12:55:51.037Z,21.40
2018-06-21T12:58:19.511Z,20.90
2018-06-21T13:00:50.837Z,20.00
2018-06-21T13:03:19.272Z,20.10
2018-06-21T13:05:47.737Z,18.80
2018-06-21T13:09:31.282Z,20.50
2018-06-21T13:12:24.760Z,20.20
2018-06-21T13:14:53.684Z,20.60
2018-06-21T13:17:22.154Z,19.70
2018-06-21T13:19:50.813Z,20.30
2018-06-21T13:22:19.334Z,20.80
2018-06-21T13:24:47.791Z,21.20
2018-06-21T13:27:16.238Z,21.90
2018-06-21T13:29:44.750Z,20.70
2018-06-21T13:32:13.185Z,20.10
2018-06-21T13:34:41.669Z,19.50
2018-06-21T13:37:10.264Z,19.60
2018-06-21T13:39:38.664Z,19.80
2018-06-21T13:44:35.316Z,20.50
2018-06-21T13:47:04.011Z,19.70
2018-06-21T13:49:32.478Z,19.80
2018-06-21T13:52:00.996Z,20.40
2018-06-21T13:54:29.480Z,20.60
2018-06-21T13:56:57.965Z,20.90
2018-06-21T13:59:26.409Z,19.50
2018-06-21T14:01:54.943Z,19.40
2018-06-21T14:04:23.461Z,19.70
2018-06-21T14:06:51.906Z,18.60
2018-06-21T14:09:20.369Z,18.40
2018-06-21T14:11:48.828Z,18.50
2018-06-21T14:14:17.321Z,18.20
2018-06-21T14:16:45.835Z,17.90
2018-06-21T14:19:14.294Z,17.90
2018-06-21T14:21:42.766Z,18.20
2018-06-21T14:24:13.553Z,18.70
2018-06-21T14:26:42.500Z,19.40
2018-06-21T14:29:10.966Z,19.10
2018-06-21T14:31:39.505Z,19.80
2018-06-21T14:34:08.000Z,19.10
2018-06-21T14:36:36.523Z,18.50
2018-06-21T14:39:07.570Z,18.00
2018-06-21T14:41:36.064Z,17.70
2018-06-21T14:44:04.523Z,17.70
2018-06-21T14:46:33.068Z,17.60
2018-06-21T14:49:01.586Z,18.00
2018-06-21T14:51:30.037Z,17.50
2018-06-21T14:53:58.535Z,17.90
2018-06-21T14:56:26.960Z,17.60
2018-06-21T15:01:23.560Z,18.50
2018-06-21T15:03:52.197Z,18.40
2018-06-21T15:06:20.882Z,18.80
2018-06-21T15:08:49.530Z,19.10
2018-06-21T15:11:17.989Z,18.80
2018-06-21T15:13:48.439Z,18.80
2018-06-21T15:16:18.777Z,18.00
2018-06-21T15:18:47.436Z,18.10
2018-06-21T15:21:16.464Z,18.40
2018-06-21T15:23:45.152Z,17.70
2018-06-21T15:26:13.628Z,17.70
2018-06-21T15:28:42.497Z,17.60
2018-06-21T15:31:11.031Z,17.40
2018-06-21T15:33:39.521Z,17.80
2018-06-21T15:36:08.059Z,17.70
2018-06-21T15:38:36.488Z,16.80
2018-06-21T15:41:04.973Z,16.80
2018-06-21T15:43:33.406Z,17.20
2018-06-21T15:46:01.833Z,17.10
2018-06-21T15:48:30.261Z,16.90
2018-06-21T15:53:27.496Z,16.60
2018-06-21T15:55:55.997Z,16.80
2018-06-21T15:58:24.566Z,15.70
2018-06-21T16:03:21.281Z,17.40
2018-06-21T16:05:49.824Z,17.40
2018-06-21T16:10:46.397Z,16.90
2018-06-21T16:13:15.978Z,17.00
2018-06-21T16:15:46.333Z,16.90
2018-06-21T16:18:14.889Z,16.50
2018-06-21T16:23:12.368Z,17.20
2018-06-21T16:25:41.045Z,17.00
2018-06-21T16:28:09.715Z,16.80
2018-06-21T16:30:38.468Z,16.10
2018-06-21T16:33:07.296Z,16.20
2018-06-21T16:35:35.761Z,16.70
2018-06-21T16:38:04.421Z,17.00
2018-06-21T16:40:32.924Z,16.80
2018-06-21T16:43:01.373Z,16.40
2018-06-21T16:45:29.845Z,16.80
2018-06-21T16:47:58.333Z,16.70
2018-06-21T16:50:26.844Z,16.90
2018-06-21T16:52:55.304Z,17.20
2018-06-21T16:55:23.744Z,16.90
2018-06-21T16:57:52.175Z,16.90
2018-06-21T17:00:20.675Z,16.70
2018-06-21T17:02:49.128Z,16.90
2018-06-21T17:05:17.666Z,17.10
2018-06-21T17:07:46.117Z,16.90
2018-06-21T17:10:14.551Z,17.20
2018-06-21T17:12:43.134Z,17.20
2018-06-21T17:15:11.699Z,17.00
2018-06-21T17:17:40.244Z,16.70
2018-06-21T17:20:08.767Z,16.80
2018-06-21T17:22:37.476Z,16.70
2018-06-21T17:25:06.026Z,16.10
2018-06-21T17:27:34.468Z,16.50
2018-06-21T17:30:03.141Z,16.40
2018-06-21T17:32:31.625Z,16.20
2018-06-21T17:35:00.377Z,16.60
2018-06-21T17:37:29.013Z,17.10
2018-06-21T17:39:57.758Z,16.70
2018-06-21T17:42:26.267Z,16.10
2018-06-21T17:44:54.750Z,16.00
2018-06-21T17:49:51.380Z,16.30
2018-06-21T17:52:19.804Z,16.30
2018-06-21T17:54:48.272Z,16.30
2018-06-21T17:57:17.092Z,16.00
2018-06-21T17:59:45.940Z,16.00
2018-06-21T18:02:14.413Z,15.90
2018-06-21T18:04:43.065Z,16.10
2018-06-21T18:07:11.529Z,16.20
2018-06-21T18:09:40.021Z,16.00
2018-06-21T18:12:08.512Z,15.90
2018-06-21T18:14:37.004Z,15.70
2018-06-21T18:17:05.725Z,15.80
2018-06-21T18:19:34.358Z,15.50
2018-06-21T18:22:02.807Z,15.40
2018-06-21T18:24:31.370Z,15.40
2018-06-21T18:26:59.841Z,15.30
2018-06-21T18:29:28.421Z,15.40
2018-06-21T18:31:56.900Z,15.60
2018-06-21T18:34:25.344Z,15.40
2018-06-21T18:36:53.877Z,15.10
2018-06-21T18:39:22.388Z,15.00
2018-06-21T18:41:50.967Z,15.00
2018-06-21T18:44:19.409Z,14.90
2018-06-21T18:46:47.886Z,14.90
2018-06-21T18:49:17.843Z,15.00
2018-06-21T18:51:46.314Z,14.70
2018-06-21T18:54:15.160Z,14.50
2018-06-21T18:56:43.648Z,14.60
2018-06-21T18:59:12.124Z,14.50
2018-06-21T19:01:41.086Z,14.70
2018-06-21T19:06:43.075Z,14.30
2018-06-21T19:09:17.004Z,14.20
2018-06-21T19:11:50.621Z,14.30
2018-06-21T19:14:19.145Z,14.30
2018-06-21T19:16:47.628Z,14.10
2018-06-21T19:19:16.109Z,14.20
2018-06-21T19:21:44.560Z,14.00
2018-06-21T19:24:13.072Z,14.10
2018-06-21T19:26:41.624Z,14.00
2018-06-21T19:29:10.264Z,13.90
2018-06-21T19:31:38.708Z,13.90
2018-06-21T19:34:08.451Z,13.80
2018-06-21T19:36:37.148Z,13.80
2018-06-21T19:39:08.378Z,13.70
2018-06-21T19:41:37.446Z,13.60
2018-06-21T19:44:05.956Z,13.50
2018-06-21T19:46:34.517Z,13.40
2018-06-21T19:49:03.009Z,13.30
2018-06-21T19:51:31.567Z,13.30
2018-06-21T19:54:00.061Z,13.30
2018-06-21T19:56:28.555Z,13.40
2018-06-21T19:58:57.091Z,13.30
2018-06-21T20:01:25.577Z,13.20
2018-06-21T20:03:54.009Z,13.30
2018-06-21T20:06:22.620Z,13.30
2018-06-21T20:08:51.065Z,13.20
2018-06-21T20:11:24.861Z,13.20
2018-06-21T20:13:53.344Z,13.10
2018-06-21T20:16:22.093Z,13.10
2018-06-21T20:18:50.557Z,12.90
2018-06-21T20:21:19.950Z,12.90
2018-06-21T20:23:49.736Z,12.90
2018-06-21T20:26:18.917Z,12.90
2018-06-21T20:28:47.440Z,12.70
2018-06-21T20:31:17.072Z,12.50
2018-06-21T20:33:46.814Z,12.70
2018-06-21T20:36:16.022Z,12.60
2018-06-21T20:38:44.516Z,12.60
2018-06-21T20:41:13.440Z,12.60
2018-06-21T20:43:42.006Z,12.50
2018-06-21T20:46:10.476Z,12.50
2018-06-21T20:48:41.981Z,12.50
2018-06-21T20:51:10.508Z,12.40
2018-06-21T20:53:38.957Z,12.40
2018-06-21T20:56:07.433Z,12.30
2018-06-21T20:58:35.892Z,12.30
2018-06-21T21:01:04.306Z,12.20
2018-06-21T21:03:32.720Z,12.20
2018-06-21T21:06:01.172Z,12.10
2018-06-21T21:08:29.644Z,12.10
2018-06-21T21:10:58.113Z,12.20
2018-06-21T21:13:26.528Z,12.10
2018-06-21T21:15:54.929Z,11.90
2018-06-21T21:20:51.549Z,11.90
2018-06-21T21:23:19.957Z,12.00
2018-06-21T21:28:16.508Z,11.80
2018-06-21T21:30:44.917Z,11.90
2018-06-21T21:33:13.439Z,11.80
2018-06-21T21:35:41.850Z,11.80
2018-06-21T21:38:10.277Z,11.80
2018-06-21T21:40:38.660Z,11.80
2018-06-21T21:43:07.054Z,11.70
2018-06-21T21:45:35.489Z,11.70
2018-06-21T21:48:03.861Z,11.60
2018-06-21T21:50:32.274Z,11.60
2018-06-21T21:53:00.749Z,11.50
2018-06-21T21:55:29.152Z,11.60
2018-06-21T21:57:57.548Z,11.50
2018-06-21T22:00:57.869Z,11.50
2018-06-21T22:03:26.337Z,11.50
2018-06-21T22:05:54.854Z,11.50
2018-06-21T22:08:23.348Z,11.40
2018-06-21T22:10:51.768Z,11.40
2018-06-21T22:13:20.145Z,11.40
2018-06-21T22:15:48.561Z,11.30
2018-06-21T22:18:17.012Z,11.30
2018-06-21T22:20:45.460Z,11.30
2018-06-21T22:23:13.837Z,11.30
2018-06-21T22:25:42.225Z,11.20
2018-06-21T22:28:10.601Z,11.20
2018-06-21T22:30:39.017Z,11.10
2018-06-21T22:33:07.460Z,11.10
2018-06-21T22:35:35.948Z,11.10
2018-06-21T22:38:04.498Z,11.10
2018-06-21T22:40:32.999Z,11.00
2018-06-21T22:43:01.405Z,11.00
2018-06-21T22:45:29.780Z,10.90
2018-06-21T22:47:58.158Z,10.80
2018-06-21T22:50:26.732Z,10.90
2018-06-21T22:52:55.160Z,10.80
2018-06-21T22:55:23.616Z,10.80
2018-06-21T23:00:20.112Z,10.70
2018-06-21T23:02:48.498Z,10.60
2018-06-21T23:05:16.885Z,10.60
2018-06-21T23:07:45.328Z,10.70
2018-06-21T23:10:13.712Z,10.70
2018-06-21T23:12:42.159Z,10.60
2018-06-21T23:15:10.573Z,10.60
2018-06-21T23:17:39.001Z,10.60
2018-06-21T23:22:35.502Z,10.60
2018-06-21T23:25:04.237Z,10.50
2018-06-21T23:27:32.613Z,10.50
2018-06-21T23:30:01.017Z,10.40
2018-06-21T23:32:29.424Z,10.40
2018-06-21T23:34:57.841Z,10.30
2018-06-21T23:37:26.274Z,10.30
2018-06-21T23:39:54.644Z,10.30
2018-06-21T23:42:23.057Z,10.20
2018-06-21T23:44:51.496Z,10.20
2018-06-21T23:47:20.024Z,10.10
2018-06-21T23:49:48.462Z,10.00
2018-06-21T23:52:16.875Z,10.00
2018-06-21T23:54:45.265Z,10.00
2018-06-21T23:57:13.652Z,10.00
2018-06-21T23:59:42.065Z,10.00
